createdAt,value
2019-03-25T00:00:37.207Z,90.80
2019-03-25T00:03:06.181Z,90.80
2019-03-25T00:05:35.012Z,90.80
2019-03-25T00:08:03.976Z,90.70
2019-03-25T00:10:32.844Z,90.70
2019-03-25T00:13:01.680Z,90.80
2019-03-25T00:15:30.552Z,90.80
2019-03-25T00:17:59.418Z,90.80
2019-03-25T00:20:28.248Z,90.80
2019-03-25T00:22:57.106Z,90.80
2019-03-25T00:25:25.983Z,90.80
2019-03-25T00:27:54.818Z,90.80
2019-03-25T00:30:23.688Z,90.80
2019-03-25T00:32:52.559Z,90.90
2019-03-25T00:35:21.388Z,90.90
2019-03-25T00:37:50.259Z,90.90
2019-03-25T00:40:19.120Z,90.90
2019-03-25T00:42:47.950Z,90.90
2019-03-25T00:45:16.810Z,90.90
2019-03-25T00:47:45.680Z,90.90
2019-03-25T00:50:14.504Z,90.90
2019-03-25T00:52:43.380Z,90.80
2019-03-25T00:55:12.242Z,90.80
2019-03-25T00:57:41.079Z,90.90
2019-03-25T01:00:10.450Z,90.90
2019-03-25T01:02:39.312Z,90.90
2019-03-25T01:05:08.642Z,90.90
2019-03-25T01:07:37.520Z,90.90
2019-03-25T01:10:08.686Z,90.90
2019-03-25T01:12:37.582Z,90.90
2019-03-25T01:15:07.794Z,91.00
2019-03-25T01:17:36.660Z,91.00
2019-03-25T01:20:09.064Z,91.00
2019-03-25T01:22:37.901Z,91.10
2019-03-25T01:25:08.235Z,91.10
2019-03-25T01:27:37.074Z,91.10
2019-03-25T01:30:08.043Z,91.10
2019-03-25T01:32:36.914Z,91.10
2019-03-25T01:35:06.870Z,91.20
2019-03-25T01:37:35.707Z,91.20
2019-03-25T01:40:07.075Z,91.20
2019-03-25T01:42:36.012Z,91.20
2019-03-25T01:45:06.579Z,91.20
2019-03-25T01:47:35.451Z,91.20
2019-03-25T01:50:07.875Z,91.20
2019-03-25T01:52:36.735Z,91.20
2019-03-25T01:55:13.382Z,91.20
2019-03-25T01:57:36.180Z,91.30
2019-03-25T02:00:07.455Z,91.30
2019-03-25T02:02:36.327Z,91.30
2019-03-25T02:05:06.557Z,91.30
2019-03-25T02:07:35.427Z,91.30
2019-03-25T02:10:06.305Z,91.30
2019-03-25T02:12:35.126Z,91.70
2019-03-25T02:15:04.109Z,91.30
2019-03-25T02:17:32.978Z,91.20
2019-03-25T02:20:01.808Z,91.20
2019-03-25T02:22:30.747Z,91.20
2019-03-25T02:24:59.648Z,91.20
2019-03-25T02:27:28.475Z,91.10
2019-03-25T02:29:57.338Z,91.10
2019-03-25T02:32:26.211Z,91.10
2019-03-25T02:34:55.648Z,91.10
2019-03-25T02:37:24.516Z,91.00
2019-03-25T02:39:53.394Z,91.00
2019-03-25T02:42:22.226Z,91.30
2019-03-25T02:44:51.093Z,90.90
2019-03-25T02:47:19.960Z,90.80
2019-03-25T02:49:48.809Z,90.80
2019-03-25T02:52:17.665Z,90.80
2019-03-25T02:54:46.526Z,90.80
2019-03-25T02:57:15.365Z,91.20
2019-03-25T02:59:44.229Z,90.80
2019-03-25T03:02:13.100Z,90.80
2019-03-25T03:04:41.921Z,90.70
2019-03-25T03:07:10.800Z,90.70
2019-03-25T03:09:39.958Z,90.60
2019-03-25T03:12:08.788Z,90.60
2019-03-25T03:14:37.651Z,90.50
2019-03-25T03:17:06.516Z,90.40
2019-03-25T03:19:35.353Z,90.40
2019-03-25T03:22:04.216Z,90.30
2019-03-25T03:24:33.093Z,90.30
2019-03-25T03:27:01.913Z,90.20
2019-03-25T03:29:30.787Z,90.20
2019-03-25T03:31:59.653Z,90.10
2019-03-25T03:34:28.493Z,90.10
2019-03-25T03:36:57.347Z,90.40
2019-03-25T03:39:26.225Z,90.10
2019-03-25T03:41:55.057Z,90.10
2019-03-25T03:44:23.916Z,90.00
2019-03-25T03:46:52.789Z,90.10
2019-03-25T03:49:21.618Z,90.10
2019-03-25T03:51:51.271Z,90.00
2019-03-25T03:54:20.250Z,90.10
2019-03-25T03:56:51.174Z,90.10
2019-03-25T03:59:20.451Z,90.10
2019-03-25T04:01:49.308Z,90.10
2019-03-25T04:04:18.136Z,90.10
2019-03-25T04:06:47.003Z,90.40
2019-03-25T04:09:15.885Z,90.10
2019-03-25T04:11:44.711Z,90.00
2019-03-25T04:14:13.568Z,90.00
2019-03-25T04:16:42.448Z,90.00
2019-03-25T04:19:11.376Z,89.90
2019-03-25T04:21:41.370Z,89.90
2019-03-25T04:24:10.272Z,89.80
2019-03-25T04:26:39.166Z,89.80
2019-03-25T04:29:08.065Z,89.90
2019-03-25T04:35:06.926Z,90.00
2019-03-25T04:37:35.969Z,90.00
2019-03-25T04:40:09.315Z,90.00
2019-03-25T04:42:38.191Z,90.00
2019-03-25T04:45:07.663Z,90.00
2019-03-25T04:47:36.486Z,90.10
2019-03-25T04:50:06.946Z,90.00
2019-03-25T04:52:35.817Z,90.00
2019-03-25T04:55:05.841Z,90.00
2019-03-25T04:57:34.708Z,90.00
2019-03-25T05:00:04.490Z,90.00
2019-03-25T05:02:33.307Z,90.00
2019-03-25T05:05:02.181Z,89.70
2019-03-25T05:07:31.053Z,89.70
2019-03-25T05:09:59.946Z,89.50
2019-03-25T05:12:28.915Z,89.50
2019-03-25T05:14:57.829Z,89.30
2019-03-25T05:17:26.721Z,89.20
2019-03-25T05:19:55.566Z,89.00
2019-03-25T05:22:24.423Z,88.90
2019-03-25T05:24:53.252Z,88.60
2019-03-25T05:27:22.183Z,88.40
2019-03-25T05:29:51.074Z,88.20
2019-03-25T05:32:19.968Z,88.10
2019-03-25T05:34:48.817Z,88.10
2019-03-25T05:37:17.686Z,87.90
2019-03-25T05:39:46.516Z,87.80
2019-03-25T05:42:15.358Z,87.80
2019-03-25T05:44:44.230Z,87.80
2019-03-25T05:47:13.055Z,87.80
2019-03-25T05:49:41.917Z,87.70
2019-03-25T05:52:10.774Z,87.70
2019-03-25T05:54:39.604Z,87.60
2019-03-25T05:57:08.475Z,87.50
2019-03-25T05:59:37.347Z,87.40
2019-03-25T06:02:06.173Z,87.40
2019-03-25T06:04:35.143Z,87.40
2019-03-25T06:07:05.944Z,87.30
2019-03-25T06:09:34.563Z,87.30
2019-03-25T06:12:03.426Z,87.20
2019-03-25T06:14:32.346Z,87.10
2019-03-25T06:17:01.339Z,87.10
2019-03-25T06:19:31.925Z,86.90
2019-03-25T06:22:00.862Z,86.70
2019-03-25T06:24:29.671Z,87.60
2019-03-25T06:26:58.644Z,86.50
2019-03-25T06:29:27.484Z,86.30
2019-03-25T06:31:56.307Z,86.00
2019-03-25T06:34:25.167Z,85.70
2019-03-25T06:36:54.041Z,85.40
2019-03-25T06:39:22.864Z,85.00
2019-03-25T06:41:51.733Z,84.60
2019-03-25T06:44:20.615Z,84.00
2019-03-25T06:46:49.572Z,83.60
2019-03-25T06:49:18.463Z,83.00
2019-03-25T06:51:47.328Z,82.50
2019-03-25T06:54:16.247Z,81.80
2019-03-25T06:56:45.135Z,81.30
2019-03-25T06:59:14.025Z,80.90
2019-03-25T07:01:42.917Z,80.40
2019-03-25T07:04:11.809Z,79.90
2019-03-25T07:06:40.705Z,79.60
2019-03-25T07:09:09.795Z,79.10
2019-03-25T07:11:40.244Z,78.70
2019-03-25T07:14:09.191Z,78.40
2019-03-25T07:16:38.108Z,77.70
2019-03-25T07:19:08.081Z,77.60
2019-03-25T07:21:37.017Z,77.00
2019-03-25T07:24:42.171Z,76.30
2019-03-25T07:27:11.099Z,75.30
2019-03-25T07:29:39.885Z,74.90
2019-03-25T07:32:09.126Z,74.30
2019-03-25T07:34:38.014Z,73.60
2019-03-25T07:37:06.840Z,73.00
2019-03-25T07:39:35.739Z,72.20
2019-03-25T07:42:04.611Z,71.70
2019-03-25T07:44:33.428Z,71.20
2019-03-25T07:47:02.310Z,70.80
2019-03-25T07:49:31.158Z,70.70
2019-03-25T07:51:59.983Z,70.70
2019-03-25T07:54:28.872Z,70.40
2019-03-25T07:56:57.734Z,70.30
2019-03-25T07:59:26.665Z,70.40
2019-03-25T08:02:02.797Z,70.60
2019-03-25T08:04:34.337Z,70.50
2019-03-25T08:07:02.949Z,70.60
2019-03-25T08:09:33.674Z,70.70
2019-03-25T08:12:02.640Z,70.60
2019-03-25T08:14:31.545Z,70.60
2019-03-25T08:17:00.446Z,70.50
2019-03-25T08:19:30.978Z,70.60
2019-03-25T08:21:59.866Z,71.00
2019-03-25T08:24:28.758Z,71.30
2019-03-25T08:26:57.756Z,71.60
2019-03-25T08:29:26.643Z,72.40
2019-03-25T08:31:55.534Z,73.10
2019-03-25T08:34:24.430Z,73.80
2019-03-25T08:36:53.315Z,74.70
2019-03-25T08:39:22.206Z,75.50
2019-03-25T08:41:51.099Z,75.90
2019-03-25T08:44:20.297Z,76.70
2019-03-25T08:46:49.288Z,77.20
2019-03-25T08:49:18.181Z,77.70
2019-03-25T08:52:38.777Z,77.90
2019-03-25T08:55:08.085Z,78.20
2019-03-25T08:57:36.980Z,78.70
2019-03-25T09:00:08.533Z,79.30
2019-03-25T09:02:37.423Z,79.80
2019-03-25T09:05:07.928Z,80.30
2019-03-25T09:07:36.930Z,80.80
2019-03-25T09:10:09.219Z,81.30
2019-03-25T09:12:38.311Z,81.40
2019-03-25T09:15:10.456Z,81.50
2019-03-25T09:17:39.370Z,81.70
2019-03-25T09:20:08.778Z,82.30
2019-03-25T09:22:37.847Z,82.10
2019-03-25T09:25:09.836Z,82.10
2019-03-25T09:27:38.697Z,82.20
2019-03-25T09:30:11.420Z,82.00
2019-03-25T09:32:40.501Z,82.20
2019-03-25T09:35:10.203Z,81.90
2019-03-25T09:37:39.818Z,81.50
2019-03-25T09:40:10.965Z,81.40
2019-03-25T09:42:39.855Z,81.20
2019-03-25T09:45:09.951Z,81.20
2019-03-25T09:47:38.865Z,81.20
2019-03-25T09:50:08.664Z,81.10
2019-03-25T09:52:38.683Z,81.20
2019-03-25T09:55:08.896Z,81.30
2019-03-25T09:57:37.809Z,81.30
2019-03-25T10:00:11.925Z,81.40
2019-03-25T10:02:40.788Z,81.40
2019-03-25T10:05:09.911Z,81.40
2019-03-25T10:07:38.904Z,81.50
2019-03-25T10:10:10.867Z,81.50
2019-03-25T10:12:39.762Z,81.60
2019-03-25T10:15:09.470Z,82.00
2019-03-25T10:17:38.438Z,82.30
2019-03-25T10:20:10.287Z,82.60
2019-03-25T10:22:39.131Z,83.00
2019-03-25T10:25:09.027Z,83.90
2019-03-25T10:27:38.002Z,83.20
2019-03-25T10:30:09.835Z,83.40
2019-03-25T10:32:38.708Z,83.70
2019-03-25T10:35:08.136Z,83.60
2019-03-25T10:37:37.002Z,84.50
2019-03-25T10:40:06.667Z,83.20
2019-03-25T10:42:35.493Z,83.00
2019-03-25T10:45:08.295Z,83.10
2019-03-25T10:47:37.168Z,82.90
2019-03-25T10:50:06.892Z,82.70
2019-03-25T10:52:35.843Z,82.90
2019-03-25T10:55:08.522Z,83.30
2019-03-25T10:57:37.617Z,83.60
2019-03-25T11:00:11.847Z,83.90
2019-03-25T11:02:40.827Z,84.20
2019-03-25T11:08:38.597Z,84.00
2019-03-25T11:11:08.558Z,83.60
2019-03-25T11:13:37.629Z,82.80
2019-03-25T11:16:06.520Z,82.10
2019-03-25T11:18:35.355Z,81.50
2019-03-25T11:21:04.182Z,80.30
2019-03-25T11:23:33.064Z,79.90
2019-03-25T11:26:01.911Z,79.60
2019-03-25T11:28:30.739Z,79.30
2019-03-25T11:30:59.919Z,78.20
2019-03-25T11:33:28.888Z,78.30
2019-03-25T11:35:57.815Z,77.90
2019-03-25T11:38:26.682Z,77.50
2019-03-25T11:40:55.584Z,76.30
2019-03-25T11:43:24.403Z,75.10
2019-03-25T11:45:53.372Z,74.30
2019-03-25T11:48:22.263Z,73.50
2019-03-25T11:50:51.131Z,72.80
2019-03-25T11:53:19.995Z,72.20
2019-03-25T11:55:48.859Z,71.30
2019-03-25T11:58:17.796Z,71.10
2019-03-25T12:00:46.771Z,68.90
2019-03-25T12:03:15.644Z,67.20
2019-03-25T12:05:46.270Z,66.40
2019-03-25T12:08:15.181Z,67.30
2019-03-25T12:10:44.071Z,69.00
2019-03-25T12:13:12.963Z,71.30
2019-03-25T12:15:41.854Z,74.10
2019-03-25T12:19:02.563Z,77.10
2019-03-25T12:21:31.436Z,79.80
2019-03-25T12:24:01.314Z,82.50
2019-03-25T12:26:32.155Z,84.00
2019-03-25T12:29:00.793Z,85.40
2019-03-25T12:31:29.679Z,86.60
2019-03-25T12:33:58.571Z,87.90
2019-03-25T12:36:27.435Z,88.90
2019-03-25T12:38:58.039Z,89.50
2019-03-25T12:41:26.958Z,89.90
2019-03-25T12:44:22.105Z,90.00
2019-03-25T12:46:50.977Z,90.00
2019-03-25T12:49:19.815Z,90.00
2019-03-25T12:51:48.707Z,90.00
2019-03-25T12:54:17.658Z,90.40
2019-03-25T12:56:46.547Z,90.30
2019-03-25T12:59:15.440Z,90.20
2019-03-25T13:01:52.577Z,90.10
2019-03-25T13:04:14.860Z,90.00
2019-03-25T13:06:43.696Z,89.50
2019-03-25T13:09:12.565Z,89.10
2019-03-25T13:11:41.387Z,88.90
2019-03-25T13:14:10.328Z,88.50
2019-03-25T13:16:39.321Z,88.30
2019-03-25T13:19:08.210Z,88.30
2019-03-25T13:21:37.105Z,88.30
2019-03-25T13:24:05.964Z,88.60
2019-03-25T13:26:34.881Z,89.20
2019-03-25T13:29:03.777Z,89.70
2019-03-25T13:31:32.765Z,90.00
2019-03-25T13:34:01.659Z,90.00
2019-03-25T13:36:30.549Z,90.00
2019-03-25T13:38:59.439Z,89.50
2019-03-25T13:41:30.015Z,88.80
2019-03-25T13:43:58.867Z,88.10
2019-03-25T13:46:27.735Z,87.70
2019-03-25T13:48:56.572Z,85.90
2019-03-25T13:51:25.424Z,85.50
2019-03-25T13:53:54.295Z,85.00
2019-03-25T13:56:23.133Z,84.30
2019-03-25T13:58:52.032Z,83.50
2019-03-25T14:01:20.935Z,82.20
2019-03-25T14:03:49.751Z,81.40
2019-03-25T14:06:18.623Z,80.80
2019-03-25T14:08:47.483Z,80.70
2019-03-25T14:11:16.507Z,81.20
2019-03-25T14:13:49.407Z,81.40
2019-03-25T14:16:15.894Z,81.90
2019-03-25T14:18:44.724Z,83.00
2019-03-25T14:21:13.584Z,82.70
2019-03-25T14:23:42.446Z,83.10
2019-03-25T14:26:11.279Z,83.50
2019-03-25T14:28:40.147Z,83.80
2019-03-25T14:31:09.011Z,84.10
2019-03-25T14:33:37.839Z,84.00
2019-03-25T14:36:06.696Z,83.80
2019-03-25T14:38:35.559Z,83.60
2019-03-25T14:41:04.384Z,82.60
2019-03-25T14:43:33.251Z,82.20
2019-03-25T14:46:02.110Z,81.80
2019-03-25T14:48:30.939Z,81.50
2019-03-25T14:51:05.939Z,81.10
2019-03-25T14:53:44.820Z,80.60
2019-03-25T14:56:05.285Z,80.10
2019-03-25T14:58:34.137Z,79.60
2019-03-25T15:01:03.455Z,78.80
2019-03-25T15:03:32.215Z,78.80
2019-03-25T15:06:01.087Z,78.60
2019-03-25T15:08:29.947Z,78.30
2019-03-25T15:10:58.772Z,78.30
2019-03-25T15:13:27.642Z,78.10
2019-03-25T15:15:56.506Z,77.50
2019-03-25T15:18:25.327Z,77.30
2019-03-25T15:20:54.300Z,77.20
2019-03-25T15:23:23.314Z,77.20
2019-03-25T15:25:53.324Z,77.70
2019-03-25T15:28:22.331Z,78.00
2019-03-25T15:30:51.221Z,78.40
2019-03-25T15:33:20.111Z,78.70
2019-03-25T15:35:48.942Z,79.90
2019-03-25T15:38:17.864Z,79.50
2019-03-25T15:40:46.785Z,79.90
2019-03-25T15:43:58.376Z,80.20
2019-03-25T15:46:27.356Z,80.40
2019-03-25T15:48:56.236Z,81.10
2019-03-25T15:51:25.155Z,81.80
2019-03-25T15:53:54.043Z,82.50
2019-03-25T15:56:22.914Z,83.00
2019-03-25T15:58:51.802Z,83.30
2019-03-25T16:01:20.669Z,83.50
2019-03-25T16:03:49.609Z,83.70
2019-03-25T16:06:18.503Z,83.90
2019-03-25T16:08:47.437Z,83.70
2019-03-25T16:11:16.384Z,83.60
2019-03-25T16:13:45.275Z,83.00
2019-03-25T16:16:14.167Z,83.00
2019-03-25T16:18:43.060Z,83.40
2019-03-25T16:21:11.951Z,83.60
2019-03-25T16:23:41.147Z,83.60
2019-03-25T16:26:10.120Z,83.60
2019-03-25T16:28:39.006Z,83.70
2019-03-25T16:31:08.026Z,83.70
2019-03-25T16:33:36.917Z,83.80
2019-03-25T16:36:05.911Z,83.80
2019-03-25T16:38:34.803Z,84.50
2019-03-25T16:41:03.695Z,83.70
2019-03-25T16:43:32.589Z,84.00
2019-03-25T16:46:01.483Z,84.10
2019-03-25T16:48:30.283Z,84.20
2019-03-25T16:50:59.265Z,84.40
2019-03-25T16:53:28.061Z,84.50
2019-03-25T16:55:56.912Z,84.70
2019-03-25T16:58:25.830Z,84.90
2019-03-25T17:00:54.721Z,85.10
2019-03-25T17:03:23.612Z,85.30
2019-03-25T17:05:52.503Z,85.60
2019-03-25T17:08:21.496Z,85.70
2019-03-25T17:10:50.490Z,85.70
2019-03-25T17:13:19.592Z,86.20
2019-03-25T17:15:48.481Z,86.30
2019-03-25T17:18:17.369Z,86.60
2019-03-25T17:20:46.261Z,86.90
2019-03-25T17:23:15.153Z,87.10
2019-03-25T17:25:52.717Z,87.50
2019-03-25T17:28:14.601Z,87.70
2019-03-25T17:30:43.567Z,87.90
2019-03-25T17:33:12.459Z,88.30
2019-03-25T17:35:41.452Z,88.50
2019-03-25T17:38:10.344Z,88.70
2019-03-25T17:41:06.167Z,88.90
2019-03-25T17:43:35.028Z,89.10
2019-03-25T17:46:03.863Z,89.40
2019-03-25T17:48:32.723Z,89.50
2019-03-25T17:51:01.604Z,89.80
2019-03-25T17:53:30.428Z,90.00
2019-03-25T17:55:59.414Z,89.90
2019-03-25T17:58:28.405Z,90.00
2019-03-25T18:01:03.130Z,90.00
2019-03-25T18:03:32.108Z,90.00
2019-03-25T18:06:01.018Z,90.10
2019-03-25T18:08:30.010Z,90.00
2019-03-25T18:10:58.878Z,90.00
2019-03-25T18:13:27.795Z,90.00
2019-03-25T18:15:56.663Z,90.00
2019-03-25T18:18:25.575Z,90.10
2019-03-25T18:20:54.466Z,90.10
2019-03-25T18:23:56.637Z,90.20
2019-03-25T18:26:25.531Z,90.30
2019-03-25T18:28:54.421Z,90.30
2019-03-25T18:31:23.516Z,90.40
2019-03-25T18:33:52.509Z,90.50
2019-03-25T18:36:21.540Z,90.60
2019-03-25T18:38:50.408Z,90.70
2019-03-25T18:41:19.272Z,90.90
2019-03-25T18:43:50.663Z,90.90
2019-03-25T18:46:19.532Z,91.10
2019-03-25T18:49:03.603Z,91.20
2019-03-25T18:51:32.487Z,91.30
2019-03-25T18:54:01.339Z,91.40
2019-03-25T18:56:30.194Z,91.50
2019-03-25T18:58:59.051Z,91.60
2019-03-25T19:01:33.371Z,91.70
2019-03-25T19:04:02.662Z,91.90
2019-03-25T19:06:31.770Z,91.90
2019-03-25T19:09:00.758Z,91.80
2019-03-25T19:11:32.592Z,91.80
2019-03-25T19:14:01.505Z,91.90
2019-03-25T19:16:30.393Z,92.00
2019-03-25T19:18:59.279Z,92.10
2019-03-25T19:21:28.272Z,92.10
2019-03-25T19:23:57.200Z,92.20
2019-03-25T19:26:26.055Z,92.30
2019-03-25T19:28:54.946Z,92.40
2019-03-25T19:31:23.855Z,92.40
2019-03-25T19:33:52.756Z,92.40
2019-03-25T19:36:21.619Z,92.50
2019-03-25T19:38:50.555Z,92.50
2019-03-25T19:41:31.513Z,92.60
2019-03-25T19:43:50.038Z,92.70
2019-03-25T19:46:18.955Z,93.10
2019-03-25T19:48:47.818Z,92.70
2019-03-25T19:51:16.737Z,92.80
2019-03-25T19:53:45.701Z,92.80
2019-03-25T19:56:14.592Z,92.80
2019-03-25T19:58:43.600Z,92.90
2019-03-25T20:01:12.489Z,92.90
2019-03-25T20:03:41.368Z,93.30
2019-03-25T20:06:10.376Z,93.00
2019-03-25T20:08:39.282Z,93.00
2019-03-25T20:11:08.145Z,93.00
2019-03-25T20:13:37.134Z,93.00
2019-03-25T20:16:06.549Z,93.10
2019-03-25T20:18:35.432Z,93.10
2019-03-25T20:21:04.420Z,93.10
2019-03-25T20:23:33.482Z,93.10
2019-03-25T20:26:02.451Z,93.10
2019-03-25T20:28:31.428Z,93.50
2019-03-25T20:31:00.503Z,93.20
2019-03-25T20:33:29.398Z,93.20
2019-03-25T20:36:31.714Z,93.30
2019-03-25T20:39:01.646Z,93.30
2019-03-25T20:41:30.591Z,93.30
2019-03-25T20:43:59.615Z,93.30
2019-03-25T20:46:28.777Z,93.30
2019-03-25T20:48:58.685Z,93.40
2019-03-25T20:51:27.597Z,93.50
2019-03-25T20:53:56.620Z,93.50
2019-03-25T20:56:25.540Z,93.50
2019-03-25T20:58:54.684Z,93.60
2019-03-25T21:01:23.605Z,93.70
2019-03-25T21:03:52.474Z,93.70
2019-03-25T21:06:21.380Z,93.80
2019-03-25T21:08:50.243Z,93.80
2019-03-25T21:11:20.024Z,93.80
2019-03-25T21:13:48.888Z,93.80
2019-03-25T21:16:17.835Z,93.80
2019-03-25T21:18:46.716Z,93.80
2019-03-25T21:21:15.577Z,93.80
2019-03-25T21:23:44.427Z,93.80
2019-03-25T21:26:13.343Z,93.80
2019-03-25T21:28:42.251Z,93.80
2019-03-25T21:31:11.114Z,93.80
2019-03-25T21:33:39.995Z,93.80
2019-03-25T21:36:08.823Z,94.20
2019-03-25T21:38:37.687Z,93.80
2019-03-25T21:41:06.523Z,93.80
2019-03-25T21:43:35.442Z,93.80
2019-03-25T21:46:04.324Z,93.80
2019-03-25T21:48:33.260Z,93.80
2019-03-25T21:51:02.110Z,93.70
2019-03-25T21:53:30.979Z,93.70
2019-03-25T21:55:59.890Z,93.70
2019-03-25T21:58:28.766Z,93.70
2019-03-25T22:00:57.666Z,93.70
2019-03-25T22:03:26.464Z,93.80
2019-03-25T22:05:55.340Z,93.80
2019-03-25T22:08:24.203Z,93.80
2019-03-25T22:10:53.221Z,93.80
2019-03-25T22:13:22.068Z,93.90
2019-03-25T22:15:50.936Z,93.80
2019-03-25T22:18:19.766Z,93.90
2019-03-25T22:20:48.628Z,93.90
2019-03-25T22:23:17.487Z,93.90
2019-03-25T22:25:46.328Z,94.00
2019-03-25T22:28:15.188Z,93.90
2019-03-25T22:30:44.051Z,94.00
2019-03-25T22:33:25.088Z,94.00
2019-03-25T22:35:43.426Z,94.00
2019-03-25T22:38:12.292Z,94.10
2019-03-25T22:40:41.117Z,94.10
2019-03-25T22:43:09.983Z,94.10
2019-03-25T22:45:38.846Z,94.10
2019-03-25T22:48:07.756Z,94.20
2019-03-25T22:50:36.644Z,94.20
2019-03-25T22:53:05.587Z,94.30
2019-03-25T22:55:34.412Z,94.40
2019-03-25T22:58:03.279Z,94.40
2019-03-25T23:00:33.714Z,94.40
2019-03-25T23:03:02.560Z,94.40
2019-03-25T23:05:31.400Z,94.50
2019-03-25T23:08:00.254Z,94.60
2019-03-25T23:10:29.094Z,94.50
2019-03-25T23:12:57.968Z,94.60
2019-03-25T23:15:26.835Z,94.60
2019-03-25T23:17:55.670Z,94.70
2019-03-25T23:20:24.520Z,94.70
2019-03-25T23:22:53.391Z,94.70
2019-03-25T23:25:22.225Z,94.70
2019-03-25T23:27:51.187Z,94.80
2019-03-25T23:30:20.051Z,94.80
2019-03-25T23:32:48.875Z,94.80
2019-03-25T23:35:17.743Z,94.90
2019-03-25T23:37:46.612Z,94.90
2019-03-25T23:40:15.453Z,94.90
2019-03-25T23:42:44.299Z,94.90
2019-03-25T23:45:13.667Z,94.90
2019-03-25T23:47:42.492Z,95.00
2019-03-25T23:50:11.367Z,94.90
2019-03-25T23:52:40.232Z,95.00
2019-03-25T23:55:09.459Z,95.10
2019-03-25T23:57:38.330Z,95.00
